Time;durP1;ratioP1;P1;durP2;ratioP2;P2;SDS_P1;SDS_P2;PMS_P1;PMS_P2;Temp;Humidity;BMP_temperature;BMP_pressure;BME280_temperature;BME280_humidity;BME280_pressure;Samples;Min_cycle;Max_cycle;Signal;HPM_P1;HPM_P2
2023/01/07 00:02:24;;;;;;;2.00;1.60;;;;;;;-4.17;68.71;99488.27;102166;1302;61234;-25
2023/01/07 00:04:51;;;;;;;1.60;1.40;;;;;;;-4.34;68.81;99493.92;101984;1301;61856;-25
2023/01/07 00:07:18;;;;;;;1.80;1.40;;;;;;;-4.47;68.91;99497.83;101927;1302;76455;-25
2023/01/07 00:09:45;;;;;;;2.40;1.10;;;;;;;-4.64;69.32;99503.63;101866;1305;76584;-25
2023/01/07 00:12:12;;;;;;;2.70;1.80;;;;;;;-4.84;69.65;99507.94;102040;1301;73885;-25
2023/01/07 00:14:39;;;;;;;4.00;1.60;;;;;;;-4.94;69.89;99507.02;102107;1298;63272;-25
2023/01/07 00:17:06;;;;;;;3.60;2.00;;;;;;;-5.02;70.58;99505.23;102000;1300;61707;-25
2023/01/07 00:19:33;;;;;;;1.10;0.80;;;;;;;-5.10;71.15;99503.46;102108;1302;74294;-25
2023/01/07 00:22:00;;;;;;;2.10;1.40;;;;;;;-5.04;71.38;99505.08;102159;1301;76600;-25
2023/01/07 00:24:27;;;;;;;1.90;0.90;;;;;;;-4.18;70.81;99496.93;102134;1300;74140;-25
2023/01/07 00:26:54;;;;;;;1.80;1.20;;;;;;;-3.46;67.47;99497.89;102200;1297;61585;-25
2023/01/07 00:29:21;;;;;;;2.00;1.20;;;;;;;-3.38;65.98;99505.05;102126;1302;62566;-25
2023/01/07 00:31:48;;;;;;;2.80;1.20;;;;;;;-3.54;65.90;99509.74;102222;1295;76463;-25
2023/01/07 00:34:16;;;;;;;2.10;1.20;;;;;;;-3.80;66.37;99506.73;102116;1301;76754;-25
2023/01/07 00:36:44;;;;;;;0.80;0.70;;;;;;;-4.05;66.73;99503.02;102056;1302;74942;-25
2023/01/07 00:39:19;;;;;;;2.20;1.40;;;;;;;-4.27;66.73;99503.85;101972;1304;61168;-25
2023/01/07 00:44:33;;;;;;;1.50;1.00;;;;;;;-4.63;68.46;99523.27;101982;1302;75098;-25
2023/01/07 00:47:00;;;;;;;0.90;0.80;;;;;;;-4.78;68.53;99525.33;101946;1301;76839;-25
2023/01/07 00:49:27;;;;;;;3.10;1.50;;;;;;;-4.91;68.45;99529.00;102020;1302;75218;-25
2023/01/07 00:51:54;;;;;;;2.20;1.50;;;;;;;-5.01;68.54;99531.81;102300;1291;61782;-25
2023/01/07 00:54:22;;;;;;;2.30;1.20;;;;;;;-5.12;68.74;99532.27;102163;1292;61879;-25
2023/01/07 00:56:49;;;;;;;1.30;1.20;;;;;;;-5.20;69.22;99536.06;102155;1300;75533;-25
2023/01/07 00:59:16;;;;;;;1.70;0.90;;;;;;;-5.25;69.83;99535.08;102217;1302;76745;-25
2023/01/07 01:01:44;;;;;;;1.20;1.00;;;;;;;-5.28;69.86;99527.83;102191;1302;75092;-25
2023/01/07 01:04:11;;;;;;;1.50;1.00;;;;;;;-4.88;69.69;99524.06;102122;1302;64460;-25
2023/01/07 01:06:38;;;;;;;1.90;1.20;;;;;;;-4.17;68.74;99523.89;102282;1294;62208;-25
2023/01/07 01:09:05;;;;;;;3.00;1.40;;;;;;;-3.96;67.09;99523.59;101961;1302;75360;-25
2023/01/07 01:11:32;;;;;;;1.40;0.80;;;;;;;-4.01;66.76;99528.79;102096;1298;76604;-25
2023/01/07 01:14:00;;;;;;;1.40;1.20;;;;;;;-4.20;66.25;99529.18;102194;1294;75507;-25
2023/01/07 01:16:27;;;;;;;2.00;1.10;;;;;;;-4.46;66.53;99532.91;102085;1301;62051;-25
2023/01/07 01:18:54;;;;;;;4.50;1.50;;;;;;;-4.63;67.19;99531.41;102063;1302;62882;-25
2023/01/07 01:21:20;;;;;;;1.20;1.00;;;;;;;-4.74;67.59;99527.97;102038;1300;76383;-25
2023/01/07 01:23:48;;;;;;;1.90;1.30;;;;;;;-4.86;68.09;99529.63;102099;1302;75749;-25
2023/01/07 01:26:16;;;;;;;1.50;1.10;;;;;;;-4.98;68.61;99526.36;102142;1302;75311;-25
2023/01/07 01:28:44;;;;;;;3.10;1.20;;;;;;;-5.06;69.12;99523.39;102154;1302;61728;-27
2023/01/07 01:31:11;;;;;;;3.70;1.90;;;;;;;-5.14;69.13;99524.66;102032;1297;61690;-27
2023/01/07 01:33:42;;;;;;;2.10;1.40;;;;;;;-5.21;69.97;99521.50;102077;1302;76402;-28
2023/01/07 01:36:10;;;;;;;4.60;1.20;;;;;;;-5.27;69.85;99515.13;102032;1302;74848;-27
2023/01/07 01:38:38;;;;;;;3.20;1.40;;;;;;;-4.91;69.24;99518.84;102176;1301;75026;-27
2023/01/07 01:41:05;;;;;;;1.10;1.00;;;;;;;-4.24;68.07;99517.71;102236;1301;61878;-27
2023/01/07 01:43:35;;;;;;;1.40;1.20;;;;;;;-4.03;67.40;99512.68;102084;1300;61447;-25
2023/01/07 01:46:20;;;;;;;1.30;0.90;;;;;;;-4.12;66.66;99507.55;101957;1304;75515;-25
2023/01/07 01:48:52;;;;;;;1.60;1.20;;;;;;;-4.28;67.04;99500.82;102029;1297;76793;-25
2023/01/07 01:51:21;;;;;;;2.20;1.40;;;;;;;-4.50;67.76;99498.55;101971;1303;74137;-25
2023/01/07 01:53:49;;;;;;;1.70;1.20;;;;;;;-4.68;67.99;99490.96;102009;1302;61603;-25
2023/01/07 01:56:19;;;;;;;2.20;1.50;;;;;;;-4.83;68.21;99495.04;102154;1294;61875;-25
2023/01/07 01:58:50;;;;;;;4.30;1.90;;;;;;;-5.02;68.08;99491.34;101954;1302;76355;-25
2023/01/07 02:01:18;;;;;;;3.40;2.30;;;;;;;-5.16;68.17;99488.27;102056;1302;76088;-25
2023/01/07 02:03:45;;;;;;;1.70;1.30;;;;;;;-5.26;68.49;99486.67;101995;1302;75211;-25
2023/01/07 02:06:26;;;;;;;2.60;1.20;;;;;;;-5.36;68.67;99485.77;102102;1301;61897;-25
2023/01/07 02:08:53;;;;;;;2.10;1.40;;;;;;;-5.44;68.70;99479.23;101942;1304;61828;-25
2023/01/07 02:11:50;;;;;;;1.80;0.90;;;;;;;-5.50;69.18;99476.42;102193;1300;76242;-25
2023/01/07 02:14:37;;;;;;;1.30;0.80;;;;;;;-5.55;69.43;99482.38;102292;1301;75750;-25
2023/01/07 02:17:17;;;;;;;0.60;0.60;;;;;;;-5.25;69.45;99481.26;102179;1301;73889;-25
2023/01/07 02:20:22;;;;;;;1.30;1.10;;;;;;;-4.34;67.53;99473.77;101937;1294;61174;-25
2023/01/07 02:23:11;;;;;;;0.70;0.70;;;;;;;-4.03;65.42;99465.36;102234;1301;62030;-25
2023/01/07 02:25:50;;;;;;;1.90;1.00;;;;;;;-4.14;65.24;99459.75;102127;1305;76376;-25
2023/01/07 02:28:51;;;;;;;1.20;0.80;;;;;;;-4.33;65.29;99461.20;102223;1301;76671;-25
2023/01/07 02:31:30;;;;;;;1.00;0.80;;;;;;;-4.52;66.05;99466.54;102086;1300;75274;-25
2023/01/07 02:34:05;;;;;;;2.10;1.40;;;;;;;-4.66;66.57;99463.49;101992;1304;62923;-25
2023/01/07 02:36:41;;;;;;;1.30;0.80;;;;;;;-4.80;67.10;99464.17;102069;1297;61622;-25
2023/01/07 02:39:31;;;;;;;2.70;1.20;;;;;;;-4.90;67.31;99459.73;102112;1296;75931;-25
2023/01/07 02:42:32;;;;;;;4.80;1.40;;;;;;;-5.05;67.34;99455.15;101936;1304;76809;-25
2023/01/07 02:45:32;;;;;;;1.90;1.10;;;;;;;-5.19;68.39;99451.39;102074;1295;75274;-25
2023/01/07 02:48:11;;;;;;;2.20;1.30;;;;;;;-5.30;68.24;99446.78;102094;1299;61877;-25
2023/01/07 02:50:38;;;;;;;1.80;1.30;;;;;;;-5.37;68.82;99440.08;102179;1291;61542;-25
2023/01/07 02:53:05;;;;;;;3.50;1.30;;;;;;;-5.43;69.10;99439.29;102228;1295;75350;-25
2023/01/07 02:56:05;;;;;;;1.60;0.90;;;;;;;-5.26;69.30;99447.92;102239;1299;75785;-25
2023/01/07 02:58:41;;;;;;;0.50;0.50;;;;;;;-4.25;67.48;99451.58;102248;1302;74981;-25
2023/01/07 03:01:19;;;;;;;1.30;1.00;;;;;;;-3.88;66.25;99449.69;102223;1298;61174;-25
2023/01/07 03:04:18;;;;;;;2.00;1.10;;;;;;;-3.92;65.67;99446.02;102132;1299;62233;-25
2023/01/07 03:06:54;;;;;;;1.10;0.90;;;;;;;-4.14;66.27;99444.83;102166;1294;74177;-25
2023/01/07 03:10:00;;;;;;;1.00;1.00;;;;;;;-4.34;66.79;99446.29;102282;1299;76548;-25
2023/01/07 03:12:55;;;;;;;0.60;0.60;;;;;;;-4.59;66.80;99447.15;102218;1301;75147;-25
2023/01/07 03:15:31;;;;;;;1.50;1.30;;;;;;;-4.81;67.43;99447.25;102194;1302;61865;-25
2023/01/07 03:18:05;;;;;;;1.70;0.80;;;;;;;-4.94;68.01;99435.89;101908;1303;61143;-25
2023/01/07 03:20:32;;;;;;;;;;;;;;;-5.04;68.60;99430.73;102001;1302;76092;-26
2023/01/07 03:22:59;;;;;;;1.80;0.80;;;;;;;-5.16;68.96;99443.91;101954;1297;75584;-25
2023/01/07 03:25:27;;;;;;;2.40;1.30;;;;;;;-5.26;69.84;99441.48;102162;1302;75008;-25
2023/01/07 03:27:54;;;;;;;1.70;1.20;;;;;;;-5.34;70.35;99437.85;102070;1300;62914;-25
2023/01/07 03:30:21;;;;;;;0.70;0.70;;;;;;;-5.17;70.82;99445.96;102011;1294;62524;-25
2023/01/07 03:32:56;;;;;;;1.10;1.00;;;;;;;-4.47;69.62;99444.60;101931;1304;76435;-26
2023/01/07 03:35:24;;;;;;;1.80;0.90;;;;;;;-4.13;68.45;99434.64;101987;1304;77001;-25
2023/01/07 03:37:51;;;;;;;1.20;0.90;;;;;;;-4.22;68.31;99435.27;102134;1302;75164;-25
2023/01/07 03:40:18;;;;;;;3.10;1.90;;;;;;;-4.40;68.34;99439.60;102022;1305;61254;-25
2023/01/07 03:42:47;;;;;;;1.50;1.20;;;;;;;-4.63;68.78;99431.45;102222;1302;61633;-25
2023/01/07 03:45:22;;;;;;;3.40;1.60;;;;;;;-4.83;69.68;99429.66;101959;1303;75441;-25
2023/01/07 03:47:51;;;;;;;2.80;2.10;;;;;;;-5.00;70.53;99438.16;101985;1299;75765;-25
2023/01/07 03:50:19;;;;;;;2.30;1.70;;;;;;;-5.08;71.09;99439.60;101975;1299;73117;-25
2023/01/07 03:52:47;;;;;;;2.80;1.80;;;;;;;-5.17;71.23;99443.76;102239;1302;61649;-25
2023/01/07 03:55:15;;;;;;;4.10;2.30;;;;;;;-5.25;72.14;99449.23;102103;1299;61845;-25
2023/01/07 03:57:42;;;;;;;1.60;1.50;;;;;;;-5.28;72.32;99447.93;102214;1301;76232;-25
2023/01/07 04:00:10;;;;;;;3.40;1.40;;;;;;;-4.95;72.33;99446.73;102152;1302;77114;-25
2023/01/07 04:02:43;;;;;;;1.60;1.30;;;;;;;-4.16;71.24;99454.69;102071;1302;75211;-25
2023/01/07 04:05:17;;;;;;;2.10;1.20;;;;;;;-3.89;69.60;99471.42;102125;1299;62057;-25
2023/01/07 04:07:44;;;;;;;2.70;1.50;;;;;;;-3.97;69.13;99474.76;102018;1305;62880;-28
2023/01/07 04:10:12;;;;;;;1.00;0.90;;;;;;;-4.16;69.65;99481.30;102050;1302;76407;-26
2023/01/07 04:12:40;;;;;;;1.50;1.20;;;;;;;-4.32;70.46;99480.85;102034;1301;76658;-29
2023/01/07 04:15:08;;;;;;;3.30;1.70;;;;;;;-4.47;71.03;99484.27;102062;1302;75313;-29
2023/01/07 04:17:35;;;;;;;2.60;1.40;;;;;;;-4.63;71.62;99488.20;101986;1302;61651;-27
2023/01/07 04:20:06;;;;;;;1.70;1.50;;;;;;;-4.72;71.78;99489.15;102148;1302;61206;-29
2023/01/07 04:22:34;;;;;;;3.40;1.30;;;;;;;-4.84;72.37;99486.24;102198;1302;76016;-26
2023/01/07 04:25:01;;;;;;;1.90;1.60;;;;;;;-4.97;72.98;99490.80;102139;1303;76531;-26
2023/01/07 04:27:29;;;;;;;0.90;0.80;;;;;;;-5.06;73.41;99497.98;102119;1295;75634;-26
2023/01/07 04:29:56;;;;;;;1.70;1.00;;;;;;;-4.94;74.09;99503.97;102229;1302;63439;-26
2023/01/07 04:32:24;;;;;;;2.80;1.80;;;;;;;-4.22;73.28;99507.34;102240;1302;62573;-26
2023/01/07 04:34:51;;;;;;;1.80;1.40;;;;;;;-3.88;72.34;99506.69;102130;1302;74227;-26
2023/01/07 04:37:19;;;;;;;3.20;1.20;;;;;;;-3.90;72.03;99508.75;102068;1302;75562;-26
2023/01/07 04:39:46;;;;;;;2.70;2.00;;;;;;;-4.05;72.39;99509.65;101961;1300;73099;-26
2023/01/07 04:42:13;;;;;;;3.50;2.10;;;;;;;-4.27;73.13;99510.29;102167;1302;62095;-26
2023/01/07 04:44:40;;;;;;;4.00;2.00;;;;;;;-4.48;73.80;99508.52;102230;1302;62558;-26
2023/01/07 04:47:07;;;;;;;7.00;3.30;;;;;;;-4.64;74.30;99509.39;101965;1302;76218;-26
2023/01/07 04:49:34;;;;;;;5.80;2.70;;;;;;;-4.80;75.13;99514.65;102198;1296;76694;-26
2023/01/07 04:52:02;;;;;;;5.10;2.60;;;;;;;-4.92;75.40;99514.46;102131;1302;74159;-26
2023/01/07 04:54:30;;;;;;;2.10;1.40;;;;;;;-4.92;76.45;99515.80;101925;1304;64301;-26
2023/01/07 04:56:57;;;;;;;2.00;1.80;;;;;;;-4.20;75.98;99519.69;102169;1301;62880;-26
2023/01/07 04:59:25;;;;;;;3.80;1.90;;;;;;;-3.71;74.66;99519.34;102275;1295;76484;-26
2023/01/07 05:01:52;;;;;;;2.50;1.40;;;;;;;-3.67;73.95;99522.33;102221;1302;76720;-26
2023/01/07 05:04:21;;;;;;;3.60;2.40;;;;;;;-3.88;73.81;99522.80;102167;1299;75300;-26
2023/01/07 05:06:48;;;;;;;1.90;1.40;;;;;;;-4.15;74.42;99519.29;102311;1302;62149;-27
2023/01/07 05:09:17;;;;;;;2.70;1.90;;;;;;;-4.40;75.17;99525.38;102235;1302;61498;-26
2023/01/07 05:11:44;;;;;;;4.00;2.00;;;;;;;-4.60;75.87;99525.27;102199;1298;76380;-26
2023/01/07 05:14:12;;;;;;;3.10;2.20;;;;;;;-4.74;76.54;99529.33;102160;1302;76591;-26
2023/01/07 05:16:39;;;;;;;4.10;2.40;;;;;;;-4.84;76.83;99533.34;102123;1302;75358;-26
2023/01/07 05:19:09;;;;;;;5.40;3.00;;;;;;;-4.94;77.24;99533.11;102249;1302;61823;-26
2023/01/07 05:21:39;;;;;;;3.30;2.10;;;;;;;-4.92;77.95;99529.86;101965;1305;61849;-26
2023/01/07 05:24:07;;;;;;;4.40;2.70;;;;;;;-4.23;77.49;99526.85;102214;1302;76117;-26
2023/01/07 05:26:35;;;;;;;5.00;2.80;;;;;;;-3.82;75.95;99532.21;102288;1302;76704;-26
2023/01/07 05:29:02;;;;;;;5.20;2.60;;;;;;;-3.79;75.20;99538.80;102064;1302;75268;-24
2023/01/07 05:31:29;;;;;;;4.30;2.60;;;;;;;-3.98;75.17;99537.71;102023;1303;61953;-24
2023/01/07 05:33:57;;;;;;;6.40;2.20;;;;;;;-4.19;75.48;99541.04;102095;1299;61717;-24
2023/01/07 05:36:24;;;;;;;2.60;1.70;;;;;;;-4.37;75.98;99543.80;102251;1302;76249;-24
2023/01/07 05:38:52;;;;;;;5.00;3.20;;;;;;;-4.57;76.69;99544.05;102281;1302;76841;-24
2023/01/07 05:41:19;;;;;;;3.40;2.40;;;;;;;-4.71;77.23;99549.80;102185;1300;75173;-24
2023/01/07 05:43:46;;;;;;;2.60;1.80;;;;;;;-4.64;77.69;99551.77;102115;1301;63192;-25
2023/01/07 05:46:13;;;;;;;3.60;1.50;;;;;;;-3.93;77.23;99552.56;102202;1302;63002;-26
2023/01/07 05:48:41;;;;;;;4.70;2.10;;;;;;;-3.56;75.51;99553.91;102122;1296;76306;-26
2023/01/07 05:51:08;;;;;;;3.10;2.10;;;;;;;-3.62;74.94;99553.83;102313;1299;76472;-26
2023/01/07 05:53:35;;;;;;;8.80;3.10;;;;;;;-3.83;75.00;99551.74;102229;1301;75073;-26
2023/01/07 05:56:03;;;;;;;5.40;2.70;;;;;;;-4.03;75.55;99553.22;102174;1300;61715;-26
2023/01/07 05:58:30;;;;;;;6.10;3.10;;;;;;;-4.28;75.78;99552.85;102272;1292;61002;-26
2023/01/07 06:00:57;;;;;;;9.80;5.10;;;;;;;-4.49;76.61;99551.92;102210;1301;76043;-26
2023/01/07 06:03:24;;;;;;;3.30;2.00;;;;;;;-4.63;76.99;99550.90;102180;1301;76821;-26
2023/01/07 06:05:51;;;;;;;5.00;2.40;;;;;;;-4.35;77.49;99553.95;102314;1297;75220;-26
2023/01/07 06:08:18;;;;;;;4.00;2.20;;;;;;;-3.77;76.56;99550.45;102180;1302;61638;-26
2023/01/07 06:10:46;;;;;;;2.00;1.60;;;;;;;-3.65;75.23;99550.98;102042;1301;62775;-26
2023/01/07 06:13:13;;;;;;;7.70;3.30;;;;;;;-3.79;75.03;99555.59;102165;1301;75060;-26
2023/01/07 06:15:40;;;;;;;3.90;2.30;;;;;;;-4.02;75.36;99550.66;102221;1305;76678;-26
2023/01/07 06:18:07;;;;;;;4.20;2.60;;;;;;;-4.20;76.00;99558.36;102224;1301;75385;-26
2023/01/07 06:20:34;;;;;;;5.60;2.90;;;;;;;-4.39;76.26;99560.45;102136;1302;61153;-26
2023/01/07 06:23:04;;;;;;;2.80;2.10;;;;;;;-4.54;76.83;99556.05;102185;1302;61862;-26
2023/01/07 06:25:31;;;;;;;1.30;1.00;;;;;;;-4.50;77.39;99562.44;102065;1300;75841;-26
2023/01/07 06:27:58;;;;;;;4.50;2.40;;;;;;;-3.77;76.39;99562.69;100942;1302;1383186;-26
2023/01/07 06:30:25;;;;;;;6.20;2.50;;;;;;;-3.35;75.29;99563.07;102129;1295;61160;-26
2023/01/07 06:32:52;;;;;;;3.50;1.80;;;;;;;-3.38;74.22;99558.02;102299;1302;62492;-27
2023/01/07 06:35:20;;;;;;;4.50;3.00;;;;;;;-3.64;74.14;99559.10;102151;1303;61852;-26
2023/01/07 06:37:47;;;;;;;3.00;2.20;;;;;;;-3.88;74.77;99556.91;102179;1295;76379;-26
2023/01/07 06:40:14;;;;;;;3.00;1.80;;;;;;;-4.11;75.41;99557.91;102159;1300;76992;-26
2023/01/07 06:42:41;;;;;;;4.30;2.50;;;;;;;-4.31;76.04;99558.67;102190;1300;75271;-26
2023/01/07 06:45:09;;;;;;;7.70;3.80;;;;;;;-4.48;76.48;99563.27;102212;1294;61955;-28
2023/01/07 06:47:36;;;;;;;5.90;2.40;;;;;;;-4.57;77.20;99563.54;102149;1295;62933;-27
2023/01/07 06:50:04;;;;;;;6.00;2.70;;;;;;;-4.07;77.44;99563.09;101950;1302;76237;-29
2023/01/07 06:52:32;;;;;;;2.40;1.60;;;;;;;-3.42;75.20;99563.85;102059;1302;75742;-28
2023/01/07 06:54:59;;;;;;;4.10;2.50;;;;;;;-3.27;74.22;99566.17;102002;1301;75275;-26
2023/01/07 06:57:26;;;;;;;3.20;1.70;;;;;;;-3.41;73.95;99567.77;102166;1295;61158;-26
2023/01/07 06:59:53;;;;;;;3.50;2.00;;;;;;;-3.62;74.24;99566.88;102145;1302;62901;-26
2023/01/07 07:02:22;;;;;;;2.00;1.60;;;;;;;-3.89;74.88;99566.93;102215;1302;76428;-24
2023/01/07 07:04:49;;;;;;;6.30;2.60;;;;;;;-4.11;75.27;99570.45;101993;1302;76857;-24
2023/01/07 07:07:17;;;;;;;3.50;1.50;;;;;;;-4.32;75.96;99576.80;102201;1301;73101;-24
2023/01/07 07:09:44;;;;;;;2.70;1.90;;;;;;;-4.16;76.57;99574.74;102106;1285;61611;-24
2023/01/07 07:12:11;;;;;;;4.80;2.80;;;;;;;-3.55;75.44;99575.44;102223;1301;62758;-24
2023/01/07 07:14:39;;;;;;;4.00;2.40;;;;;;;-3.40;74.49;99575.20;102213;1301;76338;-24
2023/01/07 07:17:06;;;;;;;2.70;1.80;;;;;;;-3.45;74.23;99575.98;102230;1298;75575;-24
2023/01/07 07:19:33;;;;;;;2.50;1.60;;;;;;;-3.66;74.38;99582.91;102163;1294;74174;-24
2023/01/07 07:22:00;;;;;;;2.30;1.80;;;;;;;-3.93;74.98;99588.69;102228;1301;61266;-25
2023/01/07 07:24:29;;;;;;;5.30;2.50;;;;;;;-4.12;75.64;99589.80;102142;1301;62627;-25
2023/01/07 07:26:56;;;;;;;3.20;2.10;;;;;;;-4.25;76.25;99587.92;102069;1301;75060;-25
2023/01/07 07:29:24;;;;;;;3.90;1.70;;;;;;;-4.17;76.97;99589.02;102144;1293;76289;-26
2023/01/07 07:31:51;;;;;;;1.70;1.00;;;;;;;-3.53;75.97;99583.55;102271;1297;75176;-25
2023/01/07 07:34:18;;;;;;;5.60;2.90;;;;;;;-3.20;74.65;99582.70;102305;1300;61479;-25
2023/01/07 07:36:45;;;;;;;4.90;3.00;;;;;;;-3.29;73.88;99584.20;102148;1298;61589;-26
2023/01/07 07:39:12;;;;;;;7.70;3.00;;;;;;;-3.56;74.39;99582.06;102096;1302;75106;-25
2023/01/07 07:41:39;;;;;;;6.00;3.50;;;;;;;-3.74;74.99;99584.37;102062;1300;76002;-25
2023/01/07 07:44:07;;;;;;;3.50;2.20;;;;;;;-3.87;75.57;99585.73;102229;1302;75240;-25
2023/01/07 07:46:34;;;;;;;7.00;1.50;;;;;;;-4.05;75.93;99586.49;102183;1299;61122;-25
2023/01/07 07:49:02;;;;;;;2.90;1.60;;;;;;;-4.19;76.49;99591.58;102116;1301;61205;-25
2023/01/07 07:51:29;;;;;;;1.30;1.20;;;;;;;-3.80;76.59;99586.80;102167;1301;75326;-25
2023/01/07 07:53:56;;;;;;;3.00;1.80;;;;;;;-3.21;74.57;99587.13;102249;1294;75814;-25
2023/01/07 07:56:23;;;;;;;3.00;2.00;;;;;;;-3.09;74.06;99586.59;102184;1300;74934;-25
2023/01/07 07:58:50;;;;;;;4.60;2.60;;;;;;;-3.21;73.64;99585.27;102066;1297;61128;-25
2023/01/07 08:01:18;;;;;;;2.10;1.70;;;;;;;-3.45;74.17;99587.68;102293;1298;61584;-25
2023/01/07 08:03:45;;;;;;;1.30;1.20;;;;;;;-3.72;74.61;99589.61;102225;1302;76389;-25
2023/01/07 08:06:12;;;;;;;3.00;2.10;;;;;;;-3.96;75.41;99596.56;102224;1298;76892;-25
2023/01/07 08:08:40;;;;;;;2.90;1.90;;;;;;;-4.14;76.23;99598.13;102079;1300;74199;-25
2023/01/07 08:11:07;;;;;;;2.40;1.80;;;;;;;-4.02;76.58;99598.83;101880;1298;63431;-25
2023/01/07 08:13:34;;;;;;;2.90;1.60;;;;;;;-3.43;75.16;99593.42;102168;1300;61550;-25
2023/01/07 08:16:01;;;;;;;3.50;2.20;;;;;;;-3.16;74.07;99593.00;101977;1302;76438;-25
2023/01/07 08:18:28;;;;;;;1.30;1.20;;;;;;;-3.22;73.66;99598.52;102163;1298;75811;-26
2023/01/07 08:20:55;;;;;;;4.40;2.30;;;;;;;-3.36;73.90;99605.02;102191;1301;74946;-25
2023/01/07 08:23:23;;;;;;;5.10;2.70;;;;;;;-3.54;74.66;99614.64;102102;1300;61119;-25
2023/01/07 08:25:50;;;;;;;1.90;1.60;;;;;;;-3.75;74.64;99623.75;101944;1302;62560;-25
2023/01/07 08:28:17;;;;;;;2.50;1.70;;;;;;;-3.93;75.58;99626.17;102117;1302;75092;-25
2023/01/07 08:30:44;;;;;;;6.10;2.80;;;;;;;-3.90;76.21;99629.89;102249;1295;75469;-25
2023/01/07 08:33:12;;;;;;;5.50;2.70;;;;;;;-3.27;75.53;99634.27;102225;1301;75309;-25
2023/01/07 08:35:39;;;;;;;5.00;2.90;;;;;;;-2.97;74.21;99628.70;102105;1301;61205;-25
2023/01/07 08:38:07;;;;;;;4.10;2.60;;;;;;;-3.03;73.64;99634.06;102028;1301;62633;-25
2023/01/07 08:40:34;;;;;;;5.70;2.40;;;;;;;-3.19;73.61;99634.48;102173;1298;76396;-25
2023/01/07 08:43:03;;;;;;;3.50;2.20;;;;;;;-3.42;74.18;99634.84;102237;1300;76520;-25
2023/01/07 08:45:30;;;;;;;4.50;2.40;;;;;;;-3.64;74.85;99636.67;101968;1301;73091;-26
2023/01/07 08:47:58;;;;;;;1.40;1.30;;;;;;;-3.80;75.60;99633.83;102183;1294;61206;-25
2023/01/07 08:50:26;;;;;;;2.60;1.70;;;;;;;-3.94;76.04;99633.84;102060;1295;62734;-25
2023/01/07 08:52:53;;;;;;;3.20;1.90;;;;;;;-3.66;76.41;99632.29;101993;1304;75321;-25
2023/01/07 08:55:20;;;;;;;1.40;1.20;;;;;;;-2.94;74.92;99628.30;102064;1302;76447;-25
2023/01/07 08:57:48;;;;;;;5.00;2.50;;;;;;;-2.72;73.42;99629.65;102235;1302;75294;-25
2023/01/07 09:00:16;;;;;;;3.70;2.10;;;;;;;-2.82;73.11;99628.97;102226;1297;61753;-26
2023/01/07 09:02:43;;;;;;;4.80;2.70;;;;;;;-3.06;73.36;99625.62;102001;1301;61150;-28
2023/01/07 09:05:11;;;;;;;3.30;2.20;;;;;;;-3.30;73.96;99632.62;102407;1299;76214;-27
2023/01/07 09:07:38;;;;;;;5.70;2.50;;;;;;;-3.52;74.95;99636.00;102201;1299;75705;-27
2023/01/07 09:10:06;;;;;;;5.90;3.00;;;;;;;-3.71;75.52;99636.59;102107;1303;73982;-26
2023/01/07 09:12:33;;;;;;;4.40;1.90;;;;;;;-3.89;76.29;99642.09;102044;1293;61099;-25
2023/01/07 09:15:00;;;;;;;8.40;2.90;;;;;;;-3.66;76.65;99636.52;102222;1299;61816;-28
2023/01/07 09:17:28;;;;;;;5.60;3.20;;;;;;;-3.03;75.49;99633.20;102153;1300;76359;-28
2023/01/07 09:19:55;;;;;;;6.90;3.50;;;;;;;-2.89;74.11;99629.08;102231;1301;75566;-31
2023/01/07 09:22:22;;;;;;;6.20;3.40;;;;;;;-3.04;73.90;99627.45;102175;1296;74151;-29
2023/01/07 09:24:49;;;;;;;5.90;4.60;;;;;;;-3.30;74.59;99629.21;102048;1302;61160;-31
2023/01/07 09:27:17;;;;;;;3.30;2.70;;;;;;;-3.54;75.23;99628.90;102193;1301;61453;-29
2023/01/07 09:29:44;;;;;;;5.00;2.20;;;;;;;-3.74;75.76;99634.77;101988;1302;76433;-29
2023/01/07 09:32:11;;;;;;;4.40;1.70;;;;;;;-3.94;76.65;99639.27;102244;1294;76757;-31
2023/01/07 09:34:38;;;;;;;5.70;2.80;;;;;;;-3.68;77.30;99633.66;102098;1297;74900;-27
2023/01/07 09:37:05;;;;;;;7.30;4.00;;;;;;;-3.12;75.85;99629.96;102189;1302;61138;-31
2023/01/07 09:39:34;;;;;;;6.70;3.20;;;;;;;-3.00;75.08;99632.48;102167;1299;62466;-30
2023/01/07 09:42:03;;;;;;;9.50;4.10;;;;;;;-3.07;75.07;99637.02;101973;1299;76766;-27
2023/01/07 09:44:52;;;;;;;7.00;4.10;;;;;;;-3.27;75.58;99631.04;102273;1299;75596;-28
2023/01/07 09:47:20;;;;;;;6.30;3.50;;;;;;;-3.56;76.14;99628.91;102177;1299;72814;-26
2023/01/07 09:49:49;;;;;;;2.80;2.20;;;;;;;-3.79;77.12;99628.73;102012;1304;62029;-27
2023/01/07 09:52:21;;;;;;;4.60;2.90;;;;;;;-3.60;77.54;99627.09;102001;1304;62913;-30
2023/01/07 09:54:51;;;;;;;4.80;2.70;;;;;;;-3.07;76.82;99621.04;102020;1299;75265;-27
2023/01/07 09:57:19;;;;;;;7.10;2.60;;;;;;;-2.89;75.30;99619.41;101978;1299;76887;-30
2023/01/07 09:59:46;;;;;;;2.90;2.00;;;;;;;-3.02;75.30;99620.63;102105;1299;74201;-30
2023/01/07 10:02:44;;;;;;;4.80;2.70;;;;;;;-3.24;75.75;99618.10;102131;1295;61667;-28
2023/01/07 10:05:49;;;;;;;3.30;2.50;;;;;;;-3.50;76.52;99621.53;102243;1302;62593;-28
2023/01/07 10:08:55;;;;;;;3.10;2.30;;;;;;;-3.74;77.56;99623.91;102190;1302;76456;-31
2023/01/07 10:11:45;;;;;;;4.00;2.90;;;;;;;-3.25;77.38;99619.27;102293;1302;75725;-28
2023/01/07 10:14:19;;;;;;;4.90;2.30;;;;;;;-2.68;75.94;99619.88;102220;1285;75148;-28
2023/01/07 10:16:58;;;;;;;8.10;2.70;;;;;;;-2.72;74.87;99621.48;102135;1298;61174;-29
2023/01/07 10:19:46;;;;;;;2.50;1.50;;;;;;;-2.93;75.24;99621.16;102181;1295;62716;-30
2023/01/07 10:22:21;;;;;;;1.30;1.10;;;;;;;-3.16;75.67;99621.88;102164;1294;75295;-29
2023/01/07 10:24:52;;;;;;;4.50;2.60;;;;;;;-3.42;76.62;99624.30;102186;1294;75690;-29
2023/01/07 10:27:33;;;;;;;5.10;2.10;;;;;;;-3.64;77.52;99619.70;101963;1298;73959;-27
2023/01/07 10:30:02;;;;;;;3.90;1.80;;;;;;;-3.38;77.79;99621.86;102199;1301;63428;-28
2023/01/07 10:32:32;;;;;;;4.00;2.60;;;;;;;-2.80;76.32;99620.42;102001;1304;62588;-26
2023/01/07 10:35:00;;;;;;;3.20;1.70;;;;;;;-2.73;74.87;99624.73;102024;1304;76205;-27
2023/01/07 10:37:35;;;;;;;4.00;3.30;;;;;;;-2.92;75.10;99621.65;102166;1299;76607;-27
2023/01/07 10:40:24;;;;;;;5.90;2.70;;;;;;;-3.11;75.73;99626.89;102019;1298;74896;-26
2023/01/07 10:43:12;;;;;;;7.20;3.50;;;;;;;-3.36;76.23;99624.39;102134;1299;61114;-26
2023/01/07 10:46:12;;;;;;;3.60;2.40;;;;;;;-3.55;77.23;99624.67;102241;1299;61987;-26
2023/01/07 10:48:49;;;;;;;2.90;2.40;;;;;;;-3.55;77.45;99618.21;102065;1302;76270;-24
2023/01/07 10:51:28;;;;;;;4.70;3.00;;;;;;;-3.06;76.59;99621.37;101969;1305;76615;-24
2023/01/07 10:54:06;;;;;;;5.10;2.80;;;;;;;-2.85;75.80;99619.31;102156;1301;75254;-24
2023/01/07 10:56:51;;;;;;;1.80;1.50;;;;;;;-2.90;75.65;99616.70;102165;1291;61200;-24
2023/01/07 10:59:19;;;;;;;4.60;3.50;;;;;;;-3.14;75.54;99615.37;102150;1299;62878;-24
2023/01/07 11:01:57;;;;;;;6.30;2.10;;;;;;;-3.34;76.00;99612.66;102019;1299;75709;-24
2023/01/07 11:04:25;;;;;;;4.10;1.80;;;;;;;-3.51;76.54;99611.38;102018;1295;75026;-25
2023/01/07 11:06:58;;;;;;;1.40;1.30;;;;;;;-3.37;77.07;99608.45;102133;1302;74166;-25
2023/01/07 11:09:34;;;;;;;3.40;1.80;;;;;;;-2.75;76.33;99600.45;101923;1297;61119;-25
2023/01/07 11:12:07;;;;;;;2.70;1.90;;;;;;;-2.54;74.77;99598.88;101909;1291;61702;-24
2023/01/07 11:14:35;;;;;;;3.40;2.20;;;;;;;-2.68;74.48;99595.73;102161;1299;76483;-24
2023/01/07 11:17:22;;;;;;;3.40;2.50;;;;;;;-2.94;74.38;99598.57;101974;1298;75741;-24
2023/01/07 11:19:52;;;;;;;3.40;2.30;;;;;;;-3.21;75.27;99601.91;102182;1301;73109;-24
2023/01/07 11:22:25;;;;;;;3.30;2.20;;;;;;;-3.38;76.00;99605.23;102191;1301;61884;-24
2023/01/07 11:24:53;;;;;;;3.30;1.90;;;;;;;-3.51;76.47;99603.73;102233;1299;62889;-24
2023/01/07 11:27:23;;;;;;;4.00;2.50;;;;;;;-3.27;76.91;99601.83;102139;1295;76163;-24
2023/01/07 11:30:06;;;;;;;3.80;2.50;;;;;;;-2.53;75.33;99602.59;101984;1299;76576;-25
2023/01/07 11:32:39;;;;;;;3.10;2.70;;;;;;;-2.29;73.40;99603.52;102172;1302;74980;-25
2023/01/07 11:35:20;;;;;;;2.00;1.40;;;;;;;-2.42;73.03;99604.11;101945;1299;61919;-25
2023/01/07 11:37:48;;;;;;;3.90;2.20;;;;;;;-2.63;73.26;99602.95;102202;1297;62986;-25
2023/01/07 11:40:25;;;;;;;1.70;1.50;;;;;;;-2.84;73.46;99603.67;102064;1292;76176;-24
2023/01/07 11:42:59;;;;;;;2.90;2.30;;;;;;;-3.09;73.99;99600.36;102052;1301;76106;-25
2023/01/07 11:45:37;;;;;;;;;;;;;;;-3.28;74.76;99602.53;102377;1292;72758;-25
2023/01/07 11:48:04;;;;;;;2.30;1.60;;;;;;;-3.26;75.46;99604.54;102068;1304;62496;-27